sensor_id;sensor_type;location;lat;lon;timestamp;temperature;humidity
11963;DHT22;62678;52.130;5.584;2022-08-19T00:00:38;18.80;99.90
11963;DHT22;62678;52.130;5.584;2022-08-19T00:03:06;18.80;99.90
11963;DHT22;62678;52.130;5.584;2022-08-19T00:05:34;18.80;99.90
11963;DHT22;62678;52.130;5.584;2022-08-19T00:08:01;18.80;99.90
11963;DHT22;62678;52.130;5.584;2022-08-19T00:10:28;18.80;99.90
11963;DHT22;62678;52.130;5.584;2022-08-19T00:12:55;18.80;99.90
11963;DHT22;62678;52.130;5.584;2022-08-19T00:15:23;18.80;99.90
11963;DHT22;62678;52.130;5.584;2022-08-19T00:17:50;18.70;99.90
11963;DHT22;62678;52.130;5.584;2022-08-19T00:20:20;18.70;99.90
11963;DHT22;62678;52.130;5.584;2022-08-19T00:22:47;18.80;99.90
11963;DHT22;62678;52.130;5.584;2022-08-19T00:25:15;18.70;99.90
11963;DHT22;62678;52.130;5.584;2022-08-19T00:27:42;18.70;99.90
11963;DHT22;62678;52.130;5.584;2022-08-19T00:30:09;18.70;99.90
11963;DHT22;62678;52.130;5.584;2022-08-19T00:32:38;18.60;99.90
11963;DHT22;62678;52.130;5.584;2022-08-19T00:35:09;18.60;99.90
11963;DHT22;62678;52.130;5.584;2022-08-19T00:37:38;18.60;99.90
11963;DHT22;62678;52.130;5.584;2022-08-19T00:40:07;18.60;99.90
11963;DHT22;62678;52.130;5.584;2022-08-19T00:42:34;18.60;99.90
11963;DHT22;62678;52.130;5.584;2022-08-19T00:45:02;18.50;99.90
11963;DHT22;62678;52.130;5.584;2022-08-19T00:47:35;18.50;99.90
11963;DHT22;62678;52.130;5.584;2022-08-19T00:50:04;18.50;99.90
11963;DHT22;62678;52.130;5.584;2022-08-19T00:52:34;18.50;99.90
11963;DHT22;62678;52.130;5.584;2022-08-19T00:55:03;18.40;99.90
11963;DHT22;62678;52.130;5.584;2022-08-19T00:57:34;18.40;99.90
11963;DHT22;62678;52.130;5.584;2022-08-19T01:00:05;18.40;99.90
11963;DHT22;62678;52.130;5.584;2022-08-19T01:02:32;18.40;99.90
11963;DHT22;62678;52.130;5.584;2022-08-19T01:05:00;18.30;99.90
11963;DHT22;62678;52.130;5.584;2022-08-19T01:07:29;18.30;99.90
11963;DHT22;62678;52.130;5.584;2022-08-19T01:09:56;18.30;99.90
11963;DHT22;62678;52.130;5.584;2022-08-19T01:12:23;18.30;99.90
11963;DHT22;62678;52.130;5.584;2022-08-19T01:14:51;18.30;99.90
11963;DHT22;62678;52.130;5.584;2022-08-19T01:17:19;18.20;99.90
11963;DHT22;62678;52.130;5.584;2022-08-19T01:19:46;18.20;99.90
11963;DHT22;62678;52.130;5.584;2022-08-19T01:22:17;18.10;99.90
11963;DHT22;62678;52.130;5.584;2022-08-19T01:24:47;18.10;99.90
11963;DHT22;62678;52.130;5.584;2022-08-19T01:27:14;18.10;99.90
11963;DHT22;62678;52.130;5.584;2022-08-19T01:29:42;18.10;99.90
11963;DHT22;62678;52.130;5.584;2022-08-19T01:32:12;18.00;99.90
11963;DHT22;62678;52.130;5.584;2022-08-19T01:34:40;18.00;99.90
11963;DHT22;62678;52.130;5.584;2022-08-19T01:37:08;17.90;99.90
11963;DHT22;62678;52.130;5.584;2022-08-19T01:39:37;17.90;99.90
11963;DHT22;62678;52.130;5.584;2022-08-19T01:42:07;17.90;99.90
11963;DHT22;62678;52.130;5.584;2022-08-19T01:44:36;17.90;99.90
11963;DHT22;62678;52.130;5.584;2022-08-19T01:47:04;17.90;99.90
11963;DHT22;62678;52.130;5.584;2022-08-19T01:49:31;17.90;99.90
11963;DHT22;62678;52.130;5.584;2022-08-19T01:52:00;17.80;99.90
11963;DHT22;62678;52.130;5.584;2022-08-19T01:54:27;17.80;99.90
11963;DHT22;62678;52.130;5.584;2022-08-19T01:56:58;17.80;99.90
11963;DHT22;62678;52.130;5.584;2022-08-19T01:59:27;17.80;99.90
11963;DHT22;62678;52.130;5.584;2022-08-19T02:01:54;17.80;99.90
11963;DHT22;62678;52.130;5.584;2022-08-19T02:04:21;17.80;99.90
11963;DHT22;62678;52.130;5.584;2022-08-19T02:06:48;17.80;99.90
11963;DHT22;62678;52.130;5.584;2022-08-19T02:09:15;17.80;99.90
11963;DHT22;62678;52.130;5.584;2022-08-19T02:11:42;17.80;99.90
11963;DHT22;62678;52.130;5.584;2022-08-19T02:14:09;17.80;99.90
11963;DHT22;62678;52.130;5.584;2022-08-19T02:16:37;17.80;99.90
11963;DHT22;62678;52.130;5.584;2022-08-19T02:19:05;17.70;99.90
11963;DHT22;62678;52.130;5.584;2022-08-19T02:21:32;17.70;99.90
11963;DHT22;62678;52.130;5.584;2022-08-19T02:23:59;17.70;99.90
11963;DHT22;62678;52.130;5.584;2022-08-19T02:26:26;17.60;99.90
11963;DHT22;62678;52.130;5.584;2022-08-19T02:28:53;17.70;99.90
11963;DHT22;62678;52.130;5.584;2022-08-19T02:31:23;17.60;99.90
11963;DHT22;62678;52.130;5.584;2022-08-19T02:33:51;17.60;99.90
11963;DHT22;62678;52.130;5.584;2022-08-19T02:36:19;17.60;99.90
11963;DHT22;62678;52.130;5.584;2022-08-19T02:38:47;17.60;99.90
11963;DHT22;62678;52.130;5.584;2022-08-19T02:41:16;17.50;99.90
11963;DHT22;62678;52.130;5.584;2022-08-19T02:43:44;17.50;99.90
11963;DHT22;62678;52.130;5.584;2022-08-19T02:46:16;17.40;99.90
11963;DHT22;62678;52.130;5.584;2022-08-19T02:48:47;17.40;99.90
11963;DHT22;62678;52.130;5.584;2022-08-19T02:51:20;17.40;99.90
11963;DHT22;62678;52.130;5.584;2022-08-19T02:53:48;17.40;99.90
11963;DHT22;62678;52.130;5.584;2022-08-19T02:56:15;17.40;99.90
11963;DHT22;62678;52.130;5.584;2022-08-19T02:58:42;17.30;99.90
11963;DHT22;62678;52.130;5.584;2022-08-19T03:01:10;17.30;99.90
11963;DHT22;62678;52.130;5.584;2022-08-19T03:03:38;17.30;99.90
11963;DHT22;62678;52.130;5.584;2022-08-19T03:06:07;17.40;99.90
11963;DHT22;62678;52.130;5.584;2022-08-19T03:08:36;17.40;99.90
11963;DHT22;62678;52.130;5.584;2022-08-19T03:11:04;17.50;99.90
11963;DHT22;62678;52.130;5.584;2022-08-19T03:13:31;17.40;99.90
11963;DHT22;62678;52.130;5.584;2022-08-19T03:15:58;17.40;99.90
11963;DHT22;62678;52.130;5.584;2022-08-19T03:18:25;17.40;99.90
11963;DHT22;62678;52.130;5.584;2022-08-19T03:20:53;17.40;99.90
11963;DHT22;62678;52.130;5.584;2022-08-19T03:23:20;17.40;99.90
11963;DHT22;62678;52.130;5.584;2022-08-19T03:25:51;17.40;99.90
11963;DHT22;62678;52.130;5.584;2022-08-19T03:28:20;17.30;99.90
11963;DHT22;62678;52.130;5.584;2022-08-19T03:30:58;17.30;99.90
11963;DHT22;62678;52.130;5.584;2022-08-19T03:33:27;17.30;99.90
11963;DHT22;62678;52.130;5.584;2022-08-19T03:36:03;17.20;99.90
11963;DHT22;62678;52.130;5.584;2022-08-19T03:38:31;17.20;99.90
11963;DHT22;62678;52.130;5.584;2022-08-19T03:41:02;17.20;99.90
11963;DHT22;62678;52.130;5.584;2022-08-19T03:43:29;17.20;99.90
11963;DHT22;62678;52.130;5.584;2022-08-19T03:46:00;17.10;99.90
11963;DHT22;62678;52.130;5.584;2022-08-19T03:48:28;17.10;99.90
11963;DHT22;62678;52.130;5.584;2022-08-19T03:50:56;17.20;99.90
11963;DHT22;62678;52.130;5.584;2022-08-19T03:53:24;17.10;99.90
11963;DHT22;62678;52.130;5.584;2022-08-19T03:55:51;17.10;99.90
11963;DHT22;62678;52.130;5.584;2022-08-19T03:58:20;17.00;99.90
11963;DHT22;62678;52.130;5.584;2022-08-19T04:00:46;17.00;99.90
11963;DHT22;62678;52.130;5.584;2022-08-19T04:03:13;17.00;99.90
11963;DHT22;62678;52.130;5.584;2022-08-19T04:05:40;17.00;99.90
11963;DHT22;62678;52.130;5.584;2022-08-19T04:08:07;17.00;99.90
11963;DHT22;62678;52.130;5.584;2022-08-19T04:10:35;17.00;99.90
11963;DHT22;62678;52.130;5.584;2022-08-19T04:13:02;17.00;99.90
11963;DHT22;62678;52.130;5.584;2022-08-19T04:15:32;17.00;99.90
11963;DHT22;62678;52.130;5.584;2022-08-19T04:18:05;17.00;99.90
11963;DHT22;62678;52.130;5.584;2022-08-19T04:20:33;17.00;99.90
11963;DHT22;62678;52.130;5.584;2022-08-19T04:22:59;17.00;99.90
11963;DHT22;62678;52.130;5.584;2022-08-19T04:25:26;16.90;99.90
11963;DHT22;62678;52.130;5.584;2022-08-19T04:27:53;17.00;99.90
11963;DHT22;62678;52.130;5.584;2022-08-19T04:30:20;17.00;99.90
11963;DHT22;62678;52.130;5.584;2022-08-19T04:32:49;17.00;99.90
11963;DHT22;62678;52.130;5.584;2022-08-19T04:35:16;17.00;99.90
11963;DHT22;62678;52.130;5.584;2022-08-19T04:37:42;17.00;99.90
11963;DHT22;62678;52.130;5.584;2022-08-19T04:40:10;17.00;99.90
11963;DHT22;62678;52.130;5.584;2022-08-19T04:42:54;17.00;99.90
11963;DHT22;62678;52.130;5.584;2022-08-19T04:45:22;16.90;99.90
11963;DHT22;62678;52.130;5.584;2022-08-19T04:47:55;17.00;99.90
11963;DHT22;62678;52.130;5.584;2022-08-19T04:50:22;16.90;99.90
11963;DHT22;62678;52.130;5.584;2022-08-19T04:52:50;17.00;99.90
11963;DHT22;62678;52.130;5.584;2022-08-19T04:55:17;17.00;99.90
11963;DHT22;62678;52.130;5.584;2022-08-19T04:57:44;16.90;99.90
11963;DHT22;62678;52.130;5.584;2022-08-19T05:00:11;16.90;99.90
11963;DHT22;62678;52.130;5.584;2022-08-19T05:02:38;16.90;99.90
11963;DHT22;62678;52.130;5.584;2022-08-19T05:05:08;17.00;99.90
11963;DHT22;62678;52.130;5.584;2022-08-19T05:07:34;17.00;99.90
11963;DHT22;62678;52.130;5.584;2022-08-19T05:10:02;17.00;99.90
11963;DHT22;62678;52.130;5.584;2022-08-19T05:12:29;17.00;99.90
11963;DHT22;62678;52.130;5.584;2022-08-19T05:14:56;17.10;99.90
11963;DHT22;62678;52.130;5.584;2022-08-19T05:17:23;17.00;99.90
11963;DHT22;62678;52.130;5.584;2022-08-19T05:19:50;17.10;99.90
11963;DHT22;62678;52.130;5.584;2022-08-19T05:22:36;17.10;99.90
11963;DHT22;62678;52.130;5.584;2022-08-19T05:25:05;17.00;99.90
11963;DHT22;62678;52.130;5.584;2022-08-19T05:27:32;17.10;99.90
11963;DHT22;62678;52.130;5.584;2022-08-19T05:29:59;17.20;99.90
11963;DHT22;62678;52.130;5.584;2022-08-19T05:32:27;17.30;99.90
11963;DHT22;62678;52.130;5.584;2022-08-19T05:34:54;17.30;99.90
11963;DHT22;62678;52.130;5.584;2022-08-19T05:37:21;17.30;99.90
11963;DHT22;62678;52.130;5.584;2022-08-19T05:39:49;17.40;99.90
11963;DHT22;62678;52.130;5.584;2022-08-19T05:42:16;17.40;99.90
11963;DHT22;62678;52.130;5.584;2022-08-19T05:44:44;17.50;99.90
11963;DHT22;62678;52.130;5.584;2022-08-19T05:47:12;17.60;99.90
11963;DHT22;62678;52.130;5.584;2022-08-19T05:49:40;17.60;99.90
11963;DHT22;62678;52.130;5.584;2022-08-19T05:52:11;17.70;99.90
11963;DHT22;62678;52.130;5.584;2022-08-19T05:54:39;17.80;99.90
11963;DHT22;62678;52.130;5.584;2022-08-19T05:57:09;18.00;99.90
11963;DHT22;62678;52.130;5.584;2022-08-19T05:59:36;18.10;99.90
11963;DHT22;62678;52.130;5.584;2022-08-19T06:02:04;18.00;99.90
11963;DHT22;62678;52.130;5.584;2022-08-19T06:04:31;18.10;99.90
11963;DHT22;62678;52.130;5.584;2022-08-19T06:06:58;18.20;99.90
11963;DHT22;62678;52.130;5.584;2022-08-19T06:09:26;18.20;99.90
11963;DHT22;62678;52.130;5.584;2022-08-19T06:11:55;18.20;99.90
11963;DHT22;62678;52.130;5.584;2022-08-19T06:14:27;18.40;99.90
11963;DHT22;62678;52.130;5.584;2022-08-19T06:16:54;18.40;99.90
11963;DHT22;62678;52.130;5.584;2022-08-19T06:19:23;18.50;99.90
11963;DHT22;62678;52.130;5.584;2022-08-19T06:21:51;18.60;99.90
11963;DHT22;62678;52.130;5.584;2022-08-19T06:24:20;18.70;99.90
11963;DHT22;62678;52.130;5.584;2022-08-19T06:26:51;18.90;99.90
11963;DHT22;62678;52.130;5.584;2022-08-19T06:29:20;19.00;99.90
11963;DHT22;62678;52.130;5.584;2022-08-19T06:31:51;19.10;99.90
11963;DHT22;62678;52.130;5.584;2022-08-19T06:34:19;19.20;99.90
11963;DHT22;62678;52.130;5.584;2022-08-19T06:36:48;19.40;99.90
11963;DHT22;62678;52.130;5.584;2022-08-19T06:39:18;19.40;99.90
11963;DHT22;62678;52.130;5.584;2022-08-19T06:41:48;19.50;99.90
11963;DHT22;62678;52.130;5.584;2022-08-19T06:44:16;19.50;99.90
11963;DHT22;62678;52.130;5.584;2022-08-19T06:46:43;19.60;99.90
11963;DHT22;62678;52.130;5.584;2022-08-19T06:49:11;19.70;99.90
11963;DHT22;62678;52.130;5.584;2022-08-19T06:51:40;19.80;99.90
11963;DHT22;62678;52.130;5.584;2022-08-19T06:54:07;19.90;99.90
11963;DHT22;62678;52.130;5.584;2022-08-19T06:56:35;19.80;99.90
11963;DHT22;62678;52.130;5.584;2022-08-19T06:59:04;20.00;99.90
11963;DHT22;62678;52.130;5.584;2022-08-19T07:01:34;20.00;99.90
11963;DHT22;62678;52.130;5.584;2022-08-19T07:04:03;20.20;99.90
11963;DHT22;62678;52.130;5.584;2022-08-19T07:06:31;20.30;99.90
11963;DHT22;62678;52.130;5.584;2022-08-19T07:08:58;20.40;99.90
11963;DHT22;62678;52.130;5.584;2022-08-19T07:11:25;20.50;99.90
11963;DHT22;62678;52.130;5.584;2022-08-19T07:13:52;20.40;99.90
11963;DHT22;62678;52.130;5.584;2022-08-19T07:16:20;20.40;99.90
11963;DHT22;62678;52.130;5.584;2022-08-19T07:18:47;20.50;99.90
11963;DHT22;62678;52.130;5.584;2022-08-19T07:21:18;20.30;99.90
11963;DHT22;62678;52.130;5.584;2022-08-19T07:23:47;20.30;99.90
11963;DHT22;62678;52.130;5.584;2022-08-19T07:26:19;20.40;99.90
11963;DHT22;62678;52.130;5.584;2022-08-19T07:28:47;20.40;99.90
11963;DHT22;62678;52.130;5.584;2022-08-19T07:31:18;20.40;99.90
11963;DHT22;62678;52.130;5.584;2022-08-19T07:33:45;20.40;99.90
11963;DHT22;62678;52.130;5.584;2022-08-19T07:36:14;20.50;99.90
11963;DHT22;62678;52.130;5.584;2022-08-19T07:38:46;20.60;99.90
11963;DHT22;62678;52.130;5.584;2022-08-19T07:41:16;20.40;99.90
11963;DHT22;62678;52.130;5.584;2022-08-19T07:43:43;20.80;99.90
11963;DHT22;62678;52.130;5.584;2022-08-19T07:46:11;20.80;99.90
11963;DHT22;62678;52.130;5.584;2022-08-19T07:48:39;20.80;99.90
11963;DHT22;62678;52.130;5.584;2022-08-19T07:51:08;20.80;99.90
11963;DHT22;62678;52.130;5.584;2022-08-19T07:53:36;20.90;99.90
11963;DHT22;62678;52.130;5.584;2022-08-19T07:56:05;20.80;99.90
11963;DHT22;62678;52.130;5.584;2022-08-19T07:58:34;20.90;99.90
11963;DHT22;62678;52.130;5.584;2022-08-19T08:01:03;21.20;99.90
11963;DHT22;62678;52.130;5.584;2022-08-19T08:03:31;21.40;99.90
11963;DHT22;62678;52.130;5.584;2022-08-19T08:06:15;21.70;99.90
11963;DHT22;62678;52.130;5.584;2022-08-19T08:09:00;21.90;99.90
11963;DHT22;62678;52.130;5.584;2022-08-19T08:11:50;21.80;99.90
11963;DHT22;62678;52.130;5.584;2022-08-19T08:14:18;22.00;99.90
11963;DHT22;62678;52.130;5.584;2022-08-19T08:16:47;22.10;99.90
11963;DHT22;62678;52.130;5.584;2022-08-19T08:19:16;22.00;99.90
11963;DHT22;62678;52.130;5.584;2022-08-19T08:21:43;21.90;99.90
11963;DHT22;62678;52.130;5.584;2022-08-19T08:24:11;21.90;99.90
11963;DHT22;62678;52.130;5.584;2022-08-19T08:26:38;22.00;99.90
11963;DHT22;62678;52.130;5.584;2022-08-19T08:29:06;22.20;99.90
11963;DHT22;62678;52.130;5.584;2022-08-19T08:31:37;22.30;99.90
11963;DHT22;62678;52.130;5.584;2022-08-19T08:34:04;22.20;99.90
11963;DHT22;62678;52.130;5.584;2022-08-19T08:36:31;22.30;99.90
11963;DHT22;62678;52.130;5.584;2022-08-19T08:38:59;22.20;99.90
11963;DHT22;62678;52.130;5.584;2022-08-19T08:41:30;22.20;99.90
11963;DHT22;62678;52.130;5.584;2022-08-19T08:43:58;22.20;99.90
11963;DHT22;62678;52.130;5.584;2022-08-19T08:46:30;22.40;99.90
11963;DHT22;62678;52.130;5.584;2022-08-19T08:49:04;22.80;99.90
11963;DHT22;62678;52.130;5.584;2022-08-19T08:51:35;23.00;99.90
11963;DHT22;62678;52.130;5.584;2022-08-19T08:54:06;22.60;99.90
11963;DHT22;62678;52.130;5.584;2022-08-19T08:56:34;22.10;99.90
11963;DHT22;62678;52.130;5.584;2022-08-19T08:59:04;21.70;99.90
11963;DHT22;62678;52.130;5.584;2022-08-19T09:01:34;21.40;99.90
11963;DHT22;62678;52.130;5.584;2022-08-19T09:04:04;21.40;99.90
11963;DHT22;62678;52.130;5.584;2022-08-19T09:06:37;21.40;99.90
11963;DHT22;62678;52.130;5.584;2022-08-19T09:09:12;21.40;99.90
11963;DHT22;62678;52.130;5.584;2022-08-19T09:11:48;21.30;99.90
11963;DHT22;62678;52.130;5.584;2022-08-19T09:14:31;21.20;99.90
11963;DHT22;62678;52.130;5.584;2022-08-19T09:17:00;21.30;99.90
11963;DHT22;62678;52.130;5.584;2022-08-19T09:19:29;21.00;99.90
11963;DHT22;62678;52.130;5.584;2022-08-19T09:21:56;21.00;99.90
11963;DHT22;62678;52.130;5.584;2022-08-19T09:24:25;21.30;99.90
11963;DHT22;62678;52.130;5.584;2022-08-19T09:26:52;21.50;99.90
11963;DHT22;62678;52.130;5.584;2022-08-19T09:29:19;21.80;99.90
11963;DHT22;62678;52.130;5.584;2022-08-19T09:31:46;22.00;99.90
11963;DHT22;62678;52.130;5.584;2022-08-19T09:34:14;22.10;99.90
11963;DHT22;62678;52.130;5.584;2022-08-19T09:36:41;22.30;99.90
11963;DHT22;62678;52.130;5.584;2022-08-19T09:39:08;22.30;99.90
11963;DHT22;62678;52.130;5.584;2022-08-19T09:41:35;22.50;99.90
11963;DHT22;62678;52.130;5.584;2022-08-19T09:44:02;22.50;99.90
11963;DHT22;62678;52.130;5.584;2022-08-19T09:46:29;22.50;99.90
11963;DHT22;62678;52.130;5.584;2022-08-19T09:48:58;22.50;99.90
11963;DHT22;62678;52.130;5.584;2022-08-19T09:51:27;22.70;99.90
11963;DHT22;62678;52.130;5.584;2022-08-19T09:53:59;22.80;99.90
11963;DHT22;62678;52.130;5.584;2022-08-19T09:56:26;22.90;99.90
11963;DHT22;62678;52.130;5.584;2022-08-19T09:58:53;23.40;99.90
11963;DHT22;62678;52.130;5.584;2022-08-19T10:01:22;23.60;99.90
11963;DHT22;62678;52.130;5.584;2022-08-19T10:03:51;23.90;99.90
11963;DHT22;62678;52.130;5.584;2022-08-19T10:06:19;23.90;99.90
11963;DHT22;62678;52.130;5.584;2022-08-19T10:08:48;23.70;99.90
11963;DHT22;62678;52.130;5.584;2022-08-19T10:11:15;23.30;99.90
11963;DHT22;62678;52.130;5.584;2022-08-19T10:13:43;22.80;99.90
11963;DHT22;62678;52.130;5.584;2022-08-19T10:16:12;22.70;99.90
11963;DHT22;62678;52.130;5.584;2022-08-19T10:18:40;23.00;99.90
11963;DHT22;62678;52.130;5.584;2022-08-19T10:21:11;23.40;99.90
11963;DHT22;62678;52.130;5.584;2022-08-19T10:23:41;24.00;99.90
11963;DHT22;62678;52.130;5.584;2022-08-19T10:26:14;24.40;99.90
11963;DHT22;62678;52.130;5.584;2022-08-19T10:28:41;24.60;99.90
11963;DHT22;62678;52.130;5.584;2022-08-19T10:31:10;24.60;99.90
11963;DHT22;62678;52.130;5.584;2022-08-19T10:33:38;24.90;99.90
11963;DHT22;62678;52.130;5.584;2022-08-19T10:36:08;25.00;99.90
11963;DHT22;62678;52.130;5.584;2022-08-19T10:38:35;24.90;99.90
11963;DHT22;62678;52.130;5.584;2022-08-19T10:41:11;24.90;99.90
11963;DHT22;62678;52.130;5.584;2022-08-19T10:43:39;24.80;99.90
11963;DHT22;62678;52.130;5.584;2022-08-19T10:46:06;24.50;99.90
11963;DHT22;62678;52.130;5.584;2022-08-19T10:48:33;24.10;99.90
11963;DHT22;62678;52.130;5.584;2022-08-19T10:51:00;23.70;99.90
11963;DHT22;62678;52.130;5.584;2022-08-19T10:53:44;23.60;99.90
11963;DHT22;62678;52.130;5.584;2022-08-19T10:56:12;23.50;99.90
11963;DHT22;62678;52.130;5.584;2022-08-19T10:59:05;23.80;99.90
11963;DHT22;62678;52.130;5.584;2022-08-19T11:01:33;24.10;99.90
11963;DHT22;62678;52.130;5.584;2022-08-19T11:04:02;24.30;99.90
11963;DHT22;62678;52.130;5.584;2022-08-19T11:06:31;24.60;99.90
11963;DHT22;62678;52.130;5.584;2022-08-19T11:08:58;24.40;99.90
11963;DHT22;62678;52.130;5.584;2022-08-19T11:11:27;24.30;99.90
11963;DHT22;62678;52.130;5.584;2022-08-19T11:13:54;24.10;99.90
11963;DHT22;62678;52.130;5.584;2022-08-19T11:16:23;24.30;99.90
11963;DHT22;62678;52.130;5.584;2022-08-19T11:18:52;24.50;99.90
11963;DHT22;62678;52.130;5.584;2022-08-19T11:21:21;24.70;99.90
11963;DHT22;62678;52.130;5.584;2022-08-19T11:23:50;24.90;99.90
11963;DHT22;62678;52.130;5.584;2022-08-19T11:26:19;25.00;99.90
11963;DHT22;62678;52.130;5.584;2022-08-19T11:28:48;25.40;99.90
11963;DHT22;62678;52.130;5.584;2022-08-19T11:31:19;25.80;99.90
11963;DHT22;62678;52.130;5.584;2022-08-19T11:33:46;26.00;99.90
11963;DHT22;62678;52.130;5.584;2022-08-19T11:36:16;26.10;99.90
11963;DHT22;62678;52.130;5.584;2022-08-19T11:38:43;26.40;99.90
11963;DHT22;62678;52.130;5.584;2022-08-19T11:41:10;26.30;99.90
11963;DHT22;62678;52.130;5.584;2022-08-19T11:43:37;26.30;99.90
11963;DHT22;62678;52.130;5.584;2022-08-19T11:46:07;26.20;99.90
11963;DHT22;62678;52.130;5.584;2022-08-19T11:48:35;26.40;99.90
11963;DHT22;62678;52.130;5.584;2022-08-19T11:51:05;26.40;99.90
11963;DHT22;62678;52.130;5.584;2022-08-19T11:53:34;26.60;99.90
11963;DHT22;62678;52.130;5.584;2022-08-19T11:56:02;26.60;99.90
11963;DHT22;62678;52.130;5.584;2022-08-19T11:58:30;26.50;99.90
11963;DHT22;62678;52.130;5.584;2022-08-19T12:00:57;26.20;99.90
11963;DHT22;62678;52.130;5.584;2022-08-19T12:03:25;26.50;99.90
11963;DHT22;62678;52.130;5.584;2022-08-19T12:05:53;26.70;99.90
11963;DHT22;62678;52.130;5.584;2022-08-19T12:08:20;27.10;99.90
11963;DHT22;62678;52.130;5.584;2022-08-19T12:10:46;27.40;99.90
11963;DHT22;62678;52.130;5.584;2022-08-19T12:13:13;27.20;99.90
11963;DHT22;62678;52.130;5.584;2022-08-19T12:15:46;27.20;99.90
11963;DHT22;62678;52.130;5.584;2022-08-19T12:18:13;27.30;99.90
11963;DHT22;62678;52.130;5.584;2022-08-19T12:20:42;26.90;99.90
11963;DHT22;62678;52.130;5.584;2022-08-19T12:23:11;26.90;99.90
11963;DHT22;62678;52.130;5.584;2022-08-19T12:25:45;26.90;99.90
11963;DHT22;62678;52.130;5.584;2022-08-19T12:28:15;26.60;99.90
11963;DHT22;62678;52.130;5.584;2022-08-19T12:30:42;26.60;99.90
11963;DHT22;62678;52.130;5.584;2022-08-19T12:33:09;26.80;99.90
11963;DHT22;62678;52.130;5.584;2022-08-19T12:35:41;27.00;99.90
11963;DHT22;62678;52.130;5.584;2022-08-19T12:38:12;27.30;99.90
11963;DHT22;62678;52.130;5.584;2022-08-19T12:40:40;27.10;99.90
11963;DHT22;62678;52.130;5.584;2022-08-19T12:43:07;27.00;99.90
11963;DHT22;62678;52.130;5.584;2022-08-19T12:45:34;27.00;99.90
11963;DHT22;62678;52.130;5.584;2022-08-19T12:48:01;26.80;99.90
11963;DHT22;62678;52.130;5.584;2022-08-19T12:50:28;26.80;99.90
11963;DHT22;62678;52.130;5.584;2022-08-19T12:52:57;26.50;99.90
11963;DHT22;62678;52.130;5.584;2022-08-19T12:55:24;26.30;99.90
11963;DHT22;62678;52.130;5.584;2022-08-19T12:57:53;26.20;99.90
11963;DHT22;62678;52.130;5.584;2022-08-19T13:00:22;25.90;99.90
11963;DHT22;62678;52.130;5.584;2022-08-19T13:02:51;25.60;99.90
11963;DHT22;62678;52.130;5.584;2022-08-19T13:05:20;25.30;99.90
11963;DHT22;62678;52.130;5.584;2022-08-19T13:07:49;25.00;99.90
11963;DHT22;62678;52.130;5.584;2022-08-19T13:10:20;24.70;99.90
11963;DHT22;62678;52.130;5.584;2022-08-19T13:12:49;24.60;99.90
11963;DHT22;62678;52.130;5.584;2022-08-19T13:15:18;24.60;99.90
11963;DHT22;62678;52.130;5.584;2022-08-19T13:17:46;24.70;99.90
11963;DHT22;62678;52.130;5.584;2022-08-19T13:20:15;24.80;99.90
11963;DHT22;62678;52.130;5.584;2022-08-19T13:22:44;24.60;99.90
11963;DHT22;62678;52.130;5.584;2022-08-19T13:25:12;24.50;99.90
11963;DHT22;62678;52.130;5.584;2022-08-19T13:27:40;24.50;99.90
11963;DHT22;62678;52.130;5.584;2022-08-19T13:30:10;24.40;99.90
11963;DHT22;62678;52.130;5.584;2022-08-19T13:32:54;24.50;99.90
11963;DHT22;62678;52.130;5.584;2022-08-19T13:35:42;24.40;99.90
11963;DHT22;62678;52.130;5.584;2022-08-19T13:38:10;24.10;99.90
11963;DHT22;62678;52.130;5.584;2022-08-19T13:40:39;23.90;99.90
11963;DHT22;62678;52.130;5.584;2022-08-19T13:43:08;23.50;99.90
11963;DHT22;62678;52.130;5.584;2022-08-19T13:45:36;23.30;99.90
11963;DHT22;62678;52.130;5.584;2022-08-19T13:48:07;23.00;99.90
11963;DHT22;62678;52.130;5.584;2022-08-19T13:50:38;22.80;99.90
11963;DHT22;62678;52.130;5.584;2022-08-19T13:53:06;22.70;99.90
11963;DHT22;62678;52.130;5.584;2022-08-19T13:55:33;22.70;99.90
11963;DHT22;62678;52.130;5.584;2022-08-19T13:58:00;22.60;99.90
11963;DHT22;62678;52.130;5.584;2022-08-19T14:00:32;22.40;99.90
11963;DHT22;62678;52.130;5.584;2022-08-19T14:03:00;22.40;99.90
11963;DHT22;62678;52.130;5.584;2022-08-19T14:05:27;22.40;99.90
11963;DHT22;62678;52.130;5.584;2022-08-19T14:07:54;22.20;99.90
11963;DHT22;62678;52.130;5.584;2022-08-19T14:10:22;22.10;99.90
11963;DHT22;62678;52.130;5.584;2022-08-19T14:12:52;22.10;99.90
11963;DHT22;62678;52.130;5.584;2022-08-19T14:15:21;22.00;99.90
11963;DHT22;62678;52.130;5.584;2022-08-19T14:17:49;22.10;99.90
11963;DHT22;62678;52.130;5.584;2022-08-19T14:20:16;22.00;99.90
11963;DHT22;62678;52.130;5.584;2022-08-19T14:22:43;22.10;99.90
11963;DHT22;62678;52.130;5.584;2022-08-19T14:25:13;21.90;99.90
11963;DHT22;62678;52.130;5.584;2022-08-19T14:27:41;21.70;99.90
11963;DHT22;62678;52.130;5.584;2022-08-19T14:30:09;21.60;99.90
11963;DHT22;62678;52.130;5.584;2022-08-19T14:32:37;21.60;99.90
11963;DHT22;62678;52.130;5.584;2022-08-19T14:35:06;21.70;99.90
11963;DHT22;62678;52.130;5.584;2022-08-19T14:37:33;21.80;99.90
11963;DHT22;62678;52.130;5.584;2022-08-19T14:40:00;21.80;99.90
11963;DHT22;62678;52.130;5.584;2022-08-19T14:42:27;21.80;99.90
11963;DHT22;62678;52.130;5.584;2022-08-19T14:44:57;21.80;99.90
11963;DHT22;62678;52.130;5.584;2022-08-19T14:47:24;21.90;99.90
11963;DHT22;62678;52.130;5.584;2022-08-19T14:49:52;22.10;99.90
11963;DHT22;62678;52.130;5.584;2022-08-19T14:52:20;22.00;99.90
11963;DHT22;62678;52.130;5.584;2022-08-19T14:54:47;22.10;99.90
11963;DHT22;62678;52.130;5.584;2022-08-19T14:57:14;22.30;99.90
11963;DHT22;62678;52.130;5.584;2022-08-19T14:59:42;22.30;99.90
11963;DHT22;62678;52.130;5.584;2022-08-19T15:02:08;22.40;99.90
11963;DHT22;62678;52.130;5.584;2022-08-19T15:04:35;22.60;99.90
11963;DHT22;62678;52.130;5.584;2022-08-19T15:07:03;22.70;99.90
11963;DHT22;62678;52.130;5.584;2022-08-19T15:09:32;22.60;99.90
11963;DHT22;62678;52.130;5.584;2022-08-19T15:11:58;22.70;99.90
11963;DHT22;62678;52.130;5.584;2022-08-19T15:14:26;22.70;99.90
11963;DHT22;62678;52.130;5.584;2022-08-19T15:16:53;22.80;99.90
11963;DHT22;62678;52.130;5.584;2022-08-19T15:19:20;23.00;99.90
11963;DHT22;62678;52.130;5.584;2022-08-19T15:21:47;23.00;99.90
11963;DHT22;62678;52.130;5.584;2022-08-19T15:24:14;23.00;99.90
11963;DHT22;62678;52.130;5.584;2022-08-19T15:26:43;23.30;99.90
11963;DHT22;62678;52.130;5.584;2022-08-19T15:29:10;23.50;99.90
11963;DHT22;62678;52.130;5.584;2022-08-19T15:31:39;23.70;99.90
11963;DHT22;62678;52.130;5.584;2022-08-19T15:34:06;23.80;99.90
11963;DHT22;62678;52.130;5.584;2022-08-19T15:36:33;24.10;99.90
11963;DHT22;62678;52.130;5.584;2022-08-19T15:39:01;24.10;99.90